Main page
METAR-TAF:

METAR-TAF

Airports :

Verona, Italy

Verona Villafranca Airport

latitude: 45-23N, longitude: 010-52E, elevation: 67 m

Current weather observation

The report was made 44 minutes ago, at 13:50 UTC
Wind 4 kt from variable directions
Temperature 29°C
Humidity 31%
Pressure 1020 hPa
Visibility 10 km or more
no clouds below 1500 m and no cumulonimbus

METAR: LIPX 281350Z VRB04KT CAVOK 29/10 Q1020

Time: 16:34 (14:34 UTC)

Forecast

The report was made 3 hours and 34 minutes ago, at 11:00 UTC
Forecast valid from 28 at 12 UTC to 28 at 21 UTC
Wind 5 kt from the Southeast
Visibility 10 km or more
no clouds below 1500 m and no cumulonimbus

TAF: LIPX 281100Z 2812/2821 13005KT CAVOK

Weather observations and forecasts of more than 4000 airports (METAR and TAF reports).

The available stations are represented by yellow and red dots on the map.

Hover mouse over dot to see the name of the station.

Then click to see weather observations and forecasts.

To change the map : click on the green buttons with a black cross to zoom in, on the green button with a dash to zoom out, or on the green arrows for adjacent maps.


METAR-TAF: